sensor_id;sensor_type;location;lat;lon;timestamp;pressure;altitude;pressure_sealevel;temperature;humidity
82953;BME280;74888;40.196;44.560;2024-01-15T00:01:04;87313.22;;;2.79;51.97
82953;BME280;74888;40.196;44.560;2024-01-15T00:03:29;87294.47;;;2.84;51.97
82953;BME280;74888;40.196;44.560;2024-01-15T00:05:55;87310.22;;;2.62;51.66
82953;BME280;74888;40.196;44.560;2024-01-15T00:08:20;87297.56;;;2.55;52.69
82953;BME280;74888;40.196;44.560;2024-01-15T00:10:46;87298.94;;;2.32;52.79
82953;BME280;74888;40.196;44.560;2024-01-15T00:13:13;87303.09;;;2.30;52.37
82953;BME280;74888;40.196;44.560;2024-01-15T00:15:39;87296.63;;;2.07;52.35
82953;BME280;74888;40.196;44.560;2024-01-15T00:18:05;87289.88;;;1.83;52.40
82953;BME280;74888;40.196;44.560;2024-01-15T00:20:31;87297.06;;;1.70;52.99
82953;BME280;74888;40.196;44.560;2024-01-15T00:22:57;87292.47;;;1.83;52.44
82953;BME280;74888;40.196;44.560;2024-01-15T00:25:23;87294.34;;;1.91;52.35
82953;BME280;74888;40.196;44.560;2024-01-15T00:27:49;87296.94;;;1.91;52.60
82953;BME280;74888;40.196;44.560;2024-01-15T00:30:14;87298.50;;;1.98;53.06
82953;BME280;74888;40.196;44.560;2024-01-15T00:32:40;87293.47;;;2.03;53.76
82953;BME280;74888;40.196;44.560;2024-01-15T00:35:06;87303.53;;;1.92;53.17
82953;BME280;74888;40.196;44.560;2024-01-15T00:37:33;87299.38;;;2.04;53.50
82953;BME280;74888;40.196;44.560;2024-01-15T00:40:00;87294.22;;;2.04;52.04
82953;BME280;74888;40.196;44.560;2024-01-15T00:42:26;87304.13;;;1.96;53.10
82953;BME280;74888;40.196;44.560;2024-01-15T00:44:52;87293.03;;;2.05;52.76
82953;BME280;74888;40.196;44.560;2024-01-15T00:47:21;87290.88;;;2.03;52.61
82953;BME280;74888;40.196;44.560;2024-01-15T00:49:47;87292.59;;;1.97;53.19
82953;BME280;74888;40.196;44.560;2024-01-15T00:52:13;87295.50;;;2.08;52.72
82953;BME280;74888;40.196;44.560;2024-01-15T00:54:38;87298.22;;;2.14;52.73
82953;BME280;74888;40.196;44.560;2024-01-15T00:57:05;87294.22;;;2.04;53.42
82953;BME280;74888;40.196;44.560;2024-01-15T00:59:31;87299.50;;;1.91;52.71
82953;BME280;74888;40.196;44.560;2024-01-15T01:01:56;87291.31;;;1.93;53.37
82953;BME280;74888;40.196;44.560;2024-01-15T01:04:23;87294.03;;;1.89;52.14
82953;BME280;74888;40.196;44.560;2024-01-15T01:06:50;87284.84;;;1.97;51.75
82953;BME280;74888;40.196;44.560;2024-01-15T01:09:21;87289.88;;;2.01;51.71
82953;BME280;74888;40.196;44.560;2024-01-15T01:11:49;87281.84;;;1.90;51.46
82953;BME280;74888;40.196;44.560;2024-01-15T01:14:14;87293.06;;;1.87;51.57
82953;BME280;74888;40.196;44.560;2024-01-15T01:16:40;87292.31;;;1.86;52.00
82953;BME280;74888;40.196;44.560;2024-01-15T01:19:06;87287.72;;;1.72;51.74
82953;BME280;74888;40.196;44.560;2024-01-15T01:21:33;87289.00;;;1.59;51.90
82953;BME280;74888;40.196;44.560;2024-01-15T01:24:00;87283.69;;;1.53;52.05
82953;BME280;74888;40.196;44.560;2024-01-15T01:26:26;87290.16;;;1.58;51.25
82953;BME280;74888;40.196;44.560;2024-01-15T01:28:51;87291.91;;;1.70;52.07
82953;BME280;74888;40.196;44.560;2024-01-15T01:31:18;87272.63;;;1.71;51.30
82953;BME280;74888;40.196;44.560;2024-01-15T01:33:43;87285.97;;;1.51;51.62
82953;BME280;74888;40.196;44.560;2024-01-15T01:36:09;87284.38;;;1.54;51.50
82953;BME280;74888;40.196;44.560;2024-01-15T01:38:36;87276.94;;;1.47;51.36
82953;BME280;74888;40.196;44.560;2024-01-15T01:41:03;87278.09;;;1.55;51.10
82953;BME280;74888;40.196;44.560;2024-01-15T01:43:29;87273.34;;;1.62;51.19
82953;BME280;74888;40.196;44.560;2024-01-15T01:45:57;87285.56;;;1.71;50.21
82953;BME280;74888;40.196;44.560;2024-01-15T01:48:26;87282.41;;;1.76;50.14
82953;BME280;74888;40.196;44.560;2024-01-15T01:50:55;87273.19;;;1.30;52.92
82953;BME280;74888;40.196;44.560;2024-01-15T01:53:25;87277.84;;;1.13;52.81
82953;BME280;74888;40.196;44.560;2024-01-15T01:55:52;87280.06;;;1.33;52.41
82953;BME280;74888;40.196;44.560;2024-01-15T01:58:19;87279.03;;;1.21;53.19
82953;BME280;74888;40.196;44.560;2024-01-15T02:00:47;87284.06;;;1.24;52.93
82953;BME280;74888;40.196;44.560;2024-01-15T02:03:14;87283.50;;;1.39;52.53
82953;BME280;74888;40.196;44.560;2024-01-15T02:05:40;87267.88;;;1.42;51.15
82953;BME280;74888;40.196;44.560;2024-01-15T02:08:06;87279.50;;;1.38;50.41
82953;BME280;74888;40.196;44.560;2024-01-15T02:10:31;87284.69;;;1.47;51.00
82953;BME280;74888;40.196;44.560;2024-01-15T02:12:57;87283.69;;;1.62;50.12
82953;BME280;74888;40.196;44.560;2024-01-15T02:15:29;87279.66;;;1.61;50.89
82953;BME280;74888;40.196;44.560;2024-01-15T02:20:28;87265.13;;;1.46;51.08
82953;BME280;74888;40.196;44.560;2024-01-15T02:23:01;87284.38;;;1.36;51.89
82953;BME280;74888;40.196;44.560;2024-01-15T02:25:26;87278.78;;;1.28;52.34
82953;BME280;74888;40.196;44.560;2024-01-15T02:27:52;87277.75;;;1.25;51.79
82953;BME280;74888;40.196;44.560;2024-01-15T02:30:18;87280.94;;;1.39;51.84
82953;BME280;74888;40.196;44.560;2024-01-15T02:32:45;87271.41;;;1.26;52.70
82953;BME280;74888;40.196;44.560;2024-01-15T02:35:12;87279.91;;;1.27;52.18
82953;BME280;74888;40.196;44.560;2024-01-15T02:37:40;87286.66;;;1.24;51.68
82953;BME280;74888;40.196;44.560;2024-01-15T02:40:06;87270.13;;;1.22;52.11
82953;BME280;74888;40.196;44.560;2024-01-15T02:42:32;87270.44;;;0.75;52.32
82953;BME280;74888;40.196;44.560;2024-01-15T02:44:58;87277.47;;;0.75;52.45
82953;BME280;74888;40.196;44.560;2024-01-15T02:47:23;87270.75;;;0.86;52.58
82953;BME280;74888;40.196;44.560;2024-01-15T02:49:49;87273.81;;;0.94;52.65
82953;BME280;74888;40.196;44.560;2024-01-15T02:52:16;87269.84;;;1.11;52.58
82953;BME280;74888;40.196;44.560;2024-01-15T02:54:42;87272.00;;;1.21;52.56
82953;BME280;74888;40.196;44.560;2024-01-15T02:57:08;87263.25;;;1.37;51.06
82953;BME280;74888;40.196;44.560;2024-01-15T02:59:34;87267.72;;;1.27;52.00
82953;BME280;74888;40.196;44.560;2024-01-15T03:02:00;87279.91;;;1.27;51.15
82953;BME280;74888;40.196;44.560;2024-01-15T03:04:25;87287.97;;;1.29;51.53
82953;BME280;74888;40.196;44.560;2024-01-15T03:06:51;87275.75;;;1.30;51.30
82953;BME280;74888;40.196;44.560;2024-01-15T03:09:18;87278.00;;;1.18;51.23
82953;BME280;74888;40.196;44.560;2024-01-15T03:11:44;87279.47;;;1.19;50.65
82953;BME280;74888;40.196;44.560;2024-01-15T03:14:11;87279.78;;;1.31;51.05
82953;BME280;74888;40.196;44.560;2024-01-15T03:16:38;87277.75;;;1.25;51.27
82953;BME280;74888;40.196;44.560;2024-01-15T03:19:03;87278.78;;;1.28;51.04
82953;BME280;74888;40.196;44.560;2024-01-15T03:21:29;87282.38;;;1.40;51.18
82953;BME280;74888;40.196;44.560;2024-01-15T03:23:56;87285.09;;;1.45;51.56
82953;BME280;74888;40.196;44.560;2024-01-15T03:26:21;87290.28;;;1.54;51.31
82953;BME280;74888;40.196;44.560;2024-01-15T03:28:47;87296.31;;;1.60;50.84
82953;BME280;74888;40.196;44.560;2024-01-15T03:31:13;87303.69;;;1.62;50.65
82953;BME280;74888;40.196;44.560;2024-01-15T03:33:38;87302.94;;;1.61;50.57
82953;BME280;74888;40.196;44.560;2024-01-15T03:36:04;87302.09;;;1.64;50.95
82953;BME280;74888;40.196;44.560;2024-01-15T03:38:30;87300.66;;;1.63;51.44
82953;BME280;74888;40.196;44.560;2024-01-15T03:40:56;87306.81;;;1.66;50.77
82953;BME280;74888;40.196;44.560;2024-01-15T03:43:21;87315.16;;;1.70;50.72
82953;BME280;74888;40.196;44.560;2024-01-15T03:45:47;87317.31;;;1.71;50.12
82953;BME280;74888;40.196;44.560;2024-01-15T03:48:13;87314.03;;;1.62;50.65
82953;BME280;74888;40.196;44.560;2024-01-15T03:50:40;87321.34;;;1.63;50.66
82953;BME280;74888;40.196;44.560;2024-01-15T03:53:07;87331.56;;;1.67;50.56
82953;BME280;74888;40.196;44.560;2024-01-15T03:55:35;87350.50;;;1.64;50.29
82953;BME280;74888;40.196;44.560;2024-01-15T03:58:00;87339.59;;;1.60;50.73
82953;BME280;74888;40.196;44.560;2024-01-15T04:00:26;87333.09;;;1.55;50.61
82953;BME280;74888;40.196;44.560;2024-01-15T04:02:52;87339.81;;;1.44;50.59
82953;BME280;74888;40.196;44.560;2024-01-15T04:05:18;87347.31;;;1.42;51.48
82953;BME280;74888;40.196;44.560;2024-01-15T04:07:44;87348.00;;;1.42;51.44
82953;BME280;74888;40.196;44.560;2024-01-15T04:10:10;87352.75;;;1.44;50.65
82953;BME280;74888;40.196;44.560;2024-01-15T04:12:36;87352.47;;;1.42;50.93
82953;BME280;74888;40.196;44.560;2024-01-15T04:15:02;87349.47;;;1.43;50.80
82953;BME280;74888;40.196;44.560;2024-01-15T04:17:28;87355.75;;;1.42;51.04
82953;BME280;74888;40.196;44.560;2024-01-15T04:19:55;87364.78;;;1.28;50.85
82953;BME280;74888;40.196;44.560;2024-01-15T04:22:21;87361.50;;;1.28;50.91
82953;BME280;74888;40.196;44.560;2024-01-15T04:24:46;87371.09;;;1.27;50.71
82953;BME280;74888;40.196;44.560;2024-01-15T04:27:12;87365.88;;;1.09;50.19
82953;BME280;74888;40.196;44.560;2024-01-15T04:29:38;87374.44;;;0.97;50.72
82953;BME280;74888;40.196;44.560;2024-01-15T04:32:05;87373.28;;;0.98;50.68
82953;BME280;74888;40.196;44.560;2024-01-15T04:36:59;87360.81;;;0.75;51.41
82953;BME280;74888;40.196;44.560;2024-01-15T04:39:24;87373.88;;;0.72;51.83
82953;BME280;74888;40.196;44.560;2024-01-15T04:41:50;87371.47;;;0.77;51.51
82953;BME280;74888;40.196;44.560;2024-01-15T04:44:17;87378.66;;;0.82;51.67
82953;BME280;74888;40.196;44.560;2024-01-15T04:46:43;87384.66;;;0.79;51.68
82953;BME280;74888;40.196;44.560;2024-01-15T04:49:09;87381.91;;;0.74;51.22
82953;BME280;74888;40.196;44.560;2024-01-15T04:51:35;87379.94;;;0.56;50.91
82953;BME280;74888;40.196;44.560;2024-01-15T04:54:01;87383.00;;;0.42;51.86
82953;BME280;74888;40.196;44.560;2024-01-15T04:56:27;87376.41;;;0.41;51.37
82953;BME280;74888;40.196;44.560;2024-01-15T04:58:53;87385.94;;;0.53;51.95
82953;BME280;74888;40.196;44.560;2024-01-15T05:01:22;87399.88;;;0.77;52.20
82953;BME280;74888;40.196;44.560;2024-01-15T05:03:49;87378.56;;;0.95;51.30
82953;BME280;74888;40.196;44.560;2024-01-15T05:06:17;87388.53;;;1.05;51.48
82953;BME280;74888;40.196;44.560;2024-01-15T05:08:42;87394.56;;;1.11;51.35
82953;BME280;74888;40.196;44.560;2024-01-15T05:11:11;87390.13;;;0.81;52.35
82953;BME280;74888;40.196;44.560;2024-01-15T05:13:37;87395.22;;;0.94;52.33
82953;BME280;74888;40.196;44.560;2024-01-15T05:16:02;87397.28;;;1.08;51.50
82953;BME280;74888;40.196;44.560;2024-01-15T05:18:28;87411.84;;;1.23;51.21
82953;BME280;74888;40.196;44.560;2024-01-15T05:20:55;87414.53;;;1.42;51.67
82953;BME280;74888;40.196;44.560;2024-01-15T05:23:21;87423.34;;;1.53;50.94
82953;BME280;74888;40.196;44.560;2024-01-15T05:25:46;87430.09;;;1.60;50.72
82953;BME280;74888;40.196;44.560;2024-01-15T05:28:14;87437.31;;;1.74;51.37
82953;BME280;74888;40.196;44.560;2024-01-15T05:30:40;87448.88;;;1.91;50.77
82953;BME280;74888;40.196;44.560;2024-01-15T05:33:05;87445.88;;;2.01;51.12
82953;BME280;74888;40.196;44.560;2024-01-15T05:35:33;87448.19;;;2.08;50.38
82953;BME280;74888;40.196;44.560;2024-01-15T05:37:59;87446.19;;;2.21;49.44
82953;BME280;74888;40.196;44.560;2024-01-15T05:40:26;87454.56;;;2.25;49.39
82953;BME280;74888;40.196;44.560;2024-01-15T05:42:53;87457.25;;;2.13;49.89
82953;BME280;74888;40.196;44.560;2024-01-15T05:45:20;87454.25;;;2.23;50.18
82953;BME280;74888;40.196;44.560;2024-01-15T05:47:46;87465.47;;;2.29;50.76
82953;BME280;74888;40.196;44.560;2024-01-15T05:50:12;87466.53;;;2.41;51.42
82953;BME280;74888;40.196;44.560;2024-01-15T05:52:38;87474.28;;;2.50;50.63
82953;BME280;74888;40.196;44.560;2024-01-15T05:55:04;87484.66;;;2.50;50.61
82953;BME280;74888;40.196;44.560;2024-01-15T05:57:30;87485.66;;;2.53;50.72
82953;BME280;74888;40.196;44.560;2024-01-15T05:59:57;87488.09;;;2.65;50.61
82953;BME280;74888;40.196;44.560;2024-01-15T06:02:22;87481.78;;;2.66;50.34
82953;BME280;74888;40.196;44.560;2024-01-15T06:04:48;87490.13;;;2.61;51.63
82953;BME280;74888;40.196;44.560;2024-01-15T06:07:15;87489.56;;;2.66;50.91
82953;BME280;74888;40.196;44.560;2024-01-15T06:09:40;87496.47;;;2.69;50.42
82953;BME280;74888;40.196;44.560;2024-01-15T06:12:07;87491.59;;;2.71;50.65
82953;BME280;74888;40.196;44.560;2024-01-15T06:14:33;87491.16;;;2.73;50.39
82953;BME280;74888;40.196;44.560;2024-01-15T06:16:59;87491.00;;;2.76;50.31
82953;BME280;74888;40.196;44.560;2024-01-15T06:19:26;87485.53;;;2.74;50.31
82953;BME280;74888;40.196;44.560;2024-01-15T06:21:51;87480.50;;;2.71;49.92
82953;BME280;74888;40.196;44.560;2024-01-15T06:24:17;87484.25;;;2.70;51.06
82953;BME280;74888;40.196;44.560;2024-01-15T06:26:46;87490.88;;;2.80;51.04
82953;BME280;74888;40.196;44.560;2024-01-15T06:29:14;87493.59;;;2.94;50.96
82953;BME280;74888;40.196;44.560;2024-01-15T06:31:42;87488.53;;;3.09;51.00
82953;BME280;74888;40.196;44.560;2024-01-15T06:34:08;87497.75;;;3.19;50.66
82953;BME280;74888;40.196;44.560;2024-01-15T06:36:34;87501.75;;;3.29;50.02
82953;BME280;74888;40.196;44.560;2024-01-15T06:39:00;87499.91;;;3.29;50.38
82953;BME280;74888;40.196;44.560;2024-01-15T06:41:26;87511.59;;;3.25;50.42
82953;BME280;74888;40.196;44.560;2024-01-15T06:43:53;87512.31;;;3.16;50.86
82953;BME280;74888;40.196;44.560;2024-01-15T06:46:22;87509.84;;;3.31;50.24
82953;BME280;74888;40.196;44.560;2024-01-15T06:48:49;87512.28;;;3.34;50.03
82953;BME280;74888;40.196;44.560;2024-01-15T06:51:16;87511.41;;;3.37;49.48
82953;BME280;74888;40.196;44.560;2024-01-15T06:53:42;87510.41;;;3.35;49.48
82953;BME280;74888;40.196;44.560;2024-01-15T06:56:09;87513.16;;;3.40;50.51
82953;BME280;74888;40.196;44.560;2024-01-15T06:58:35;87513.13;;;3.49;50.22
82953;BME280;74888;40.196;44.560;2024-01-15T07:01:00;87511.66;;;3.66;49.48
82953;BME280;74888;40.196;44.560;2024-01-15T07:03:28;87512.66;;;3.69;49.13
82953;BME280;74888;40.196;44.560;2024-01-15T07:05:54;87508.31;;;3.66;49.48
82953;BME280;74888;40.196;44.560;2024-01-15T07:08:19;87516.44;;;3.59;49.35
82953;BME280;74888;40.196;44.560;2024-01-15T07:10:45;87516.69;;;3.61;49.39
82953;BME280;74888;40.196;44.560;2024-01-15T07:13:10;87513.41;;;3.60;50.02
82953;BME280;74888;40.196;44.560;2024-01-15T07:15:39;87515.50;;;3.71;49.70
82953;BME280;74888;40.196;44.560;2024-01-15T07:18:05;87514.91;;;3.85;49.27
82953;BME280;74888;40.196;44.560;2024-01-15T07:20:31;87515.06;;;3.82;48.94
82953;BME280;74888;40.196;44.560;2024-01-15T07:22:57;87516.34;;;3.86;49.23
82953;BME280;74888;40.196;44.560;2024-01-15T07:25:24;87517.44;;;4.03;48.52
82953;BME280;74888;40.196;44.560;2024-01-15T07:27:51;87513.19;;;4.24;48.79
82953;BME280;74888;40.196;44.560;2024-01-15T07:30:19;87523.13;;;4.25;47.69
82953;BME280;74888;40.196;44.560;2024-01-15T07:32:47;87522.19;;;4.05;47.96
82953;BME280;74888;40.196;44.560;2024-01-15T07:35:13;87526.59;;;4.22;48.45
82953;BME280;74888;40.196;44.560;2024-01-15T07:37:39;87521.41;;;4.22;48.61
82953;BME280;74888;40.196;44.560;2024-01-15T07:40:06;87518.69;;;4.17;48.00
82953;BME280;74888;40.196;44.560;2024-01-15T07:42:34;87521.38;;;4.31;48.49
82953;BME280;74888;40.196;44.560;2024-01-15T07:45:06;87526.31;;;4.53;48.48
82953;BME280;74888;40.196;44.560;2024-01-15T07:47:31;87520.91;;;4.65;47.74
82953;BME280;74888;40.196;44.560;2024-01-15T07:49:58;87513.00;;;4.83;48.50
82953;BME280;74888;40.196;44.560;2024-01-15T07:52:25;87520.91;;;4.89;47.77
82953;BME280;74888;40.196;44.560;2024-01-15T07:54:50;87512.94;;;4.92;47.29
82953;BME280;74888;40.196;44.560;2024-01-15T07:57:16;87517.25;;;4.95;47.21
82953;BME280;74888;40.196;44.560;2024-01-15T07:59:43;87496.81;;;5.03;47.42
82953;BME280;74888;40.196;44.560;2024-01-15T08:02:08;87501.50;;;5.14;46.95
82953;BME280;74888;40.196;44.560;2024-01-15T08:04:34;87499.91;;;5.16;47.13
82953;BME280;74888;40.196;44.560;2024-01-15T08:07:00;87498.75;;;5.17;46.61
82953;BME280;74888;40.196;44.560;2024-01-15T08:09:26;87497.69;;;5.24;47.37
82953;BME280;74888;40.196;44.560;2024-01-15T08:11:52;87489.09;;;5.32;47.21
82953;BME280;74888;40.196;44.560;2024-01-15T08:14:17;87489.44;;;5.40;47.12
82953;BME280;74888;40.196;44.560;2024-01-15T08:16:43;87487.72;;;5.37;47.62
82953;BME280;74888;40.196;44.560;2024-01-15T08:19:09;87480.75;;;5.43;46.25
82953;BME280;74888;40.196;44.560;2024-01-15T08:21:34;87484.59;;;5.47;46.68
82953;BME280;74888;40.196;44.560;2024-01-15T08:24:01;87481.66;;;5.54;47.33
82953;BME280;74888;40.196;44.560;2024-01-15T08:26:30;87486.22;;;5.59;46.53
82953;BME280;74888;40.196;44.560;2024-01-15T08:28:56;87486.41;;;5.56;46.51
82953;BME280;74888;40.196;44.560;2024-01-15T08:31:22;87481.66;;;5.54;46.45
82953;BME280;74888;40.196;44.560;2024-01-15T08:33:48;87484.44;;;5.65;46.53
82953;BME280;74888;40.196;44.560;2024-01-15T08:36:14;87477.00;;;5.73;46.64
82953;BME280;74888;40.196;44.560;2024-01-15T08:38:39;87475.03;;;5.82;46.20
82953;BME280;74888;40.196;44.560;2024-01-15T08:41:06;87481.22;;;5.85;46.42
82953;BME280;74888;40.196;44.560;2024-01-15T08:43:34;87479.25;;;5.94;46.00
82953;BME280;74888;40.196;44.560;2024-01-15T08:46:00;87479.84;;;6.04;46.18
82953;BME280;74888;40.196;44.560;2024-01-15T08:48:26;87483.28;;;6.10;45.80
82953;BME280;74888;40.196;44.560;2024-01-15T08:50:55;87473.56;;;6.10;45.78
82953;BME280;74888;40.196;44.560;2024-01-15T08:53:22;87481.94;;;6.00;45.71
82953;BME280;74888;40.196;44.560;2024-01-15T08:55:48;87474.13;;;6.00;45.47
82953;BME280;74888;40.196;44.560;2024-01-15T08:58:15;87475.47;;;6.10;46.23
82953;BME280;74888;40.196;44.560;2024-01-15T09:00:40;87467.97;;;6.17;46.24
82953;BME280;74888;40.196;44.560;2024-01-15T09:03:06;87469.94;;;6.22;46.19
82953;BME280;74888;40.196;44.560;2024-01-15T09:05:35;87469.56;;;6.30;45.61
82953;BME280;74888;40.196;44.560;2024-01-15T09:08:00;87473.41;;;6.34;46.18
82953;BME280;74888;40.196;44.560;2024-01-15T09:10:27;87467.09;;;6.41;45.51
82953;BME280;74888;40.196;44.560;2024-01-15T09:12:54;87457.94;;;6.45;45.25
82953;BME280;74888;40.196;44.560;2024-01-15T09:15:20;87454.69;;;6.50;45.43
82953;BME280;74888;40.196;44.560;2024-01-15T09:17:47;87460.88;;;6.53;44.73
82953;BME280;74888;40.196;44.560;2024-01-15T09:20:13;87456.00;;;6.60;45.65
82953;BME280;74888;40.196;44.560;2024-01-15T09:22:38;87455.63;;;6.67;45.23
82953;BME280;74888;40.196;44.560;2024-01-15T09:25:08;87455.22;;;6.74;44.81
82953;BME280;74888;40.196;44.560;2024-01-15T09:27:35;87445.03;;;6.76;44.55
82953;BME280;74888;40.196;44.560;2024-01-15T09:30:02;87446.59;;;6.68;44.17
82953;BME280;74888;40.196;44.560;2024-01-15T09:32:28;87445.22;;;6.73;44.19
82953;BME280;74888;40.196;44.560;2024-01-15T09:34:54;87446.81;;;6.85;45.15
82953;BME280;74888;40.196;44.560;2024-01-15T09:37:21;87440.34;;;7.00;44.95
82953;BME280;74888;40.196;44.560;2024-01-15T09:39:49;87444.56;;;7.18;43.92
82953;BME280;74888;40.196;44.560;2024-01-15T09:42:16;87429.75;;;7.29;44.40
82953;BME280;74888;40.196;44.560;2024-01-15T09:44:41;87434.34;;;7.40;44.17
82953;BME280;74888;40.196;44.560;2024-01-15T09:47:07;87429.38;;;7.42;43.91
82953;BME280;74888;40.196;44.560;2024-01-15T09:49:34;87432.78;;;7.53;44.54
82953;BME280;74888;40.196;44.560;2024-01-15T09:52:01;87433.13;;;7.61;43.76
82953;BME280;74888;40.196;44.560;2024-01-15T09:54:27;87432.19;;;7.64;43.46
82953;BME280;74888;40.196;44.560;2024-01-15T09:56:54;87428.22;;;7.74;42.32
82953;BME280;74888;40.196;44.560;2024-01-15T09:59:20;87431.09;;;7.76;42.79
82953;BME280;74888;40.196;44.560;2024-01-15T10:01:50;87428.53;;;7.82;42.90
82953;BME280;74888;40.196;44.560;2024-01-15T10:04:16;87431.94;;;7.93;42.19
82953;BME280;74888;40.196;44.560;2024-01-15T10:06:44;87425.84;;;8.02;42.33
82953;BME280;74888;40.196;44.560;2024-01-15T10:09:13;87426.84;;;8.10;42.98
82953;BME280;74888;40.196;44.560;2024-01-15T10:11:42;87425.47;;;8.20;42.51
82953;BME280;74888;40.196;44.560;2024-01-15T10:14:12;87432.22;;;8.26;42.48
82953;BME280;74888;40.196;44.560;2024-01-15T10:16:41;87427.75;;;8.32;42.38
82953;BME280;74888;40.196;44.560;2024-01-15T10:19:09;87427.06;;;8.37;41.21
82953;BME280;74888;40.196;44.560;2024-01-15T10:21:35;87430.41;;;8.43;41.57
82953;BME280;74888;40.196;44.560;2024-01-15T10:24:03;87430.72;;;8.51;41.90
82953;BME280;74888;40.196;44.560;2024-01-15T10:26:31;87434.03;;;8.51;42.18
82953;BME280;74888;40.196;44.560;2024-01-15T10:29:01;87436.38;;;8.44;41.32
82953;BME280;74888;40.196;44.560;2024-01-15T10:31:27;87440.97;;;8.54;42.04
82953;BME280;74888;40.196;44.560;2024-01-15T10:34:10;87440.50;;;8.61;40.67
82953;BME280;74888;40.196;44.560;2024-01-15T10:36:36;87448.50;;;8.47;41.92
82953;BME280;74888;40.196;44.560;2024-01-15T10:39:04;87440.63;;;8.41;41.29
82953;BME280;74888;40.196;44.560;2024-01-15T10:41:31;87442.97;;;8.39;41.54
82953;BME280;74888;40.196;44.560;2024-01-15T10:43:57;87443.91;;;8.36;42.31
82953;BME280;74888;40.196;44.560;2024-01-15T10:46:23;87452.78;;;8.44;42.37
82953;BME280;74888;40.196;44.560;2024-01-15T10:48:49;87446.34;;;8.45;41.89
82953;BME280;74888;40.196;44.560;2024-01-15T10:51:15;87440.69;;;8.52;42.03
82953;BME280;74888;40.196;44.560;2024-01-15T10:53:42;87443.56;;;8.54;41.18
82953;BME280;74888;40.196;44.560;2024-01-15T10:56:09;87448.13;;;8.65;41.83
82953;BME280;74888;40.196;44.560;2024-01-15T10:58:36;87450.31;;;8.72;41.38
82953;BME280;74888;40.196;44.560;2024-01-15T11:01:04;87452.97;;;8.78;41.04
82953;BME280;74888;40.196;44.560;2024-01-15T11:03:30;87448.00;;;8.85;40.85
82953;BME280;74888;40.196;44.560;2024-01-15T11:05:57;87457.75;;;8.85;40.58
82953;BME280;74888;40.196;44.560;2024-01-15T11:08:25;87460.78;;;8.72;41.06
82953;BME280;74888;40.196;44.560;2024-01-15T11:10:51;87454.59;;;8.75;40.99
82953;BME280;74888;40.196;44.560;2024-01-15T11:16:04;87459.19;;;8.86;40.24
82953;BME280;74888;40.196;44.560;2024-01-15T11:18:40;87462.28;;;8.84;39.27
82953;BME280;74888;40.196;44.560;2024-01-15T11:23:46;87469.13;;;8.82;39.90
82953;BME280;74888;40.196;44.560;2024-01-15T11:28:58;87474.63;;;8.78;39.83
82953;BME280;74888;40.196;44.560;2024-01-15T11:33:56;87471.03;;;8.76;40.48
82953;BME280;74888;40.196;44.560;2024-01-15T11:42:00;87470.25;;;8.64;40.15
82953;BME280;74888;40.196;44.560;2024-01-15T11:44:27;87478.25;;;8.49;39.41
82953;BME280;74888;40.196;44.560;2024-01-15T11:47:07;87480.09;;;8.43;40.01
82953;BME280;74888;40.196;44.560;2024-01-15T11:52:21;87480.06;;;8.38;39.63
82953;BME280;74888;40.196;44.560;2024-01-15T11:57:46;87494.59;;;8.39;40.64
82953;BME280;74888;40.196;44.560;2024-01-15T12:00:12;87495.72;;;8.32;40.40
82953;BME280;74888;40.196;44.560;2024-01-15T12:02:43;87493.84;;;8.38;40.38
82953;BME280;74888;40.196;44.560;2024-01-15T12:05:13;87498.16;;;8.41;40.08
82953;BME280;74888;40.196;44.560;2024-01-15T12:07:43;87508.88;;;8.43;40.51
82953;BME280;74888;40.196;44.560;2024-01-15T12:10:10;87508.91;;;8.49;39.85
82953;BME280;74888;40.196;44.560;2024-01-15T12:13:14;87513.16;;;8.46;38.99
82953;BME280;74888;40.196;44.560;2024-01-15T12:15:42;87513.16;;;8.46;39.83
82953;BME280;74888;40.196;44.560;2024-01-15T12:18:11;87512.31;;;8.60;40.00
82953;BME280;74888;40.196;44.560;2024-01-15T12:20:37;87521.16;;;8.68;39.84
82953;BME280;74888;40.196;44.560;2024-01-15T12:23:04;87517.59;;;8.71;38.98
82953;BME280;74888;40.196;44.560;2024-01-15T12:25:33;87525.03;;;8.73;39.23
82953;BME280;74888;40.196;44.560;2024-01-15T12:28:00;87530.47;;;8.69;38.65
82953;BME280;74888;40.196;44.560;2024-01-15T12:30:27;87534.50;;;8.70;39.71
82953;BME280;74888;40.196;44.560;2024-01-15T12:32:54;87536.19;;;8.73;39.65
82953;BME280;74888;40.196;44.560;2024-01-15T12:35:24;87538.53;;;8.71;38.90
82953;BME280;74888;40.196;44.560;2024-01-15T12:37:51;87542.09;;;8.68;38.94
82953;BME280;74888;40.196;44.560;2024-01-15T12:40:22;87542.25;;;8.54;39.46
82953;BME280;74888;40.196;44.560;2024-01-15T12:42:48;87539.53;;;8.43;39.54
82953;BME280;74888;40.196;44.560;2024-01-15T12:45:14;87558.28;;;8.41;40.29
82953;BME280;74888;40.196;44.560;2024-01-15T12:47:40;87540.66;;;8.36;39.79
82953;BME280;74888;40.196;44.560;2024-01-15T12:50:10;87545.63;;;8.34;40.43
82953;BME280;74888;40.196;44.560;2024-01-15T12:52:37;87550.84;;;8.29;39.78
82953;BME280;74888;40.196;44.560;2024-01-15T12:55:06;87541.06;;;8.24;40.27
82953;BME280;74888;40.196;44.560;2024-01-15T12:57:33;87546.94;;;8.19;40.24
82953;BME280;74888;40.196;44.560;2024-01-15T13:00:00;87549.03;;;8.15;39.58
82953;BME280;74888;40.196;44.560;2024-01-15T13:02:26;87549.16;;;8.06;39.83
82953;BME280;74888;40.196;44.560;2024-01-15T13:04:51;87555.78;;;8.01;39.79
82953;BME280;74888;40.196;44.560;2024-01-15T13:07:17;87559.22;;;7.87;40.27
82953;BME280;74888;40.196;44.560;2024-01-15T13:09:43;87556.22;;;7.74;40.98
82953;BME280;74888;40.196;44.560;2024-01-15T13:12:09;87554.94;;;7.64;40.84
82953;BME280;74888;40.196;44.560;2024-01-15T13:14:34;87566.69;;;7.54;41.83
82953;BME280;74888;40.196;44.560;2024-01-15T13:17:01;87566.78;;;7.39;41.41
82953;BME280;74888;40.196;44.560;2024-01-15T13:19:28;87572.59;;;7.29;41.92
82953;BME280;74888;40.196;44.560;2024-01-15T13:21:55;87571.47;;;7.15;42.26
82953;BME280;74888;40.196;44.560;2024-01-15T13:24:24;87573.22;;;7.04;42.01